createdAt,value
2022-12-18T00:02:23.071Z,7.20
2022-12-18T00:04:49.890Z,7.10
2022-12-18T00:07:16.749Z,6.90
2022-12-18T00:09:43.620Z,7.72
2022-12-18T00:14:45.549Z,8.00
2022-12-18T00:17:12.673Z,6.63
2022-12-18T00:19:39.483Z,6.95
2022-12-18T00:22:07.388Z,6.68
2022-12-18T00:24:34.240Z,7.13
2022-12-18T00:27:01.096Z,9.57
2022-12-18T00:29:27.907Z,8.15
2022-12-18T00:31:54.747Z,8.68
2022-12-18T00:34:21.550Z,7.57
2022-12-18T00:36:49.442Z,6.40
2022-12-18T00:39:16.282Z,6.50
2022-12-18T00:42:02.044Z,7.20
2022-12-18T00:44:28.870Z,6.60
2022-12-18T00:46:55.689Z,7.15
2022-12-18T00:49:22.570Z,6.47
2022-12-18T00:51:49.903Z,6.88
2022-12-18T00:54:17.698Z,6.35
2022-12-18T00:56:49.445Z,6.07
2022-12-18T00:59:17.626Z,5.63
2022-12-18T01:01:45.915Z,5.90
2022-12-18T01:04:12.909Z,5.60
2022-12-18T01:06:40.152Z,6.60
2022-12-18T01:09:07.208Z,6.18
2022-12-18T01:11:34.132Z,6.50
2022-12-18T01:14:00.948Z,5.90
2022-12-18T01:16:27.862Z,5.82
2022-12-18T01:18:55.668Z,6.13
2022-12-18T01:21:23.657Z,5.90
2022-12-18T01:23:56.955Z,6.25
2022-12-18T01:26:25.759Z,5.50
2022-12-18T01:28:53.015Z,6.05
2022-12-18T01:31:25.611Z,5.18
2022-12-18T01:36:33.652Z,5.82
2022-12-18T01:39:02.192Z,5.85
2022-12-18T01:41:49.377Z,5.95
2022-12-18T01:44:53.432Z,6.10
2022-12-18T01:47:26.333Z,6.57
2022-12-18T01:49:53.867Z,6.15
2022-12-18T01:52:21.698Z,6.25
2022-12-18T01:54:50.777Z,6.78
2022-12-18T01:57:17.740Z,6.25
2022-12-18T01:59:47.363Z,8.02
2022-12-18T02:02:14.454Z,5.90
2022-12-18T02:04:45.090Z,5.85
2022-12-18T02:07:45.262Z,7.38
2022-12-18T02:10:15.216Z,5.85
2022-12-18T02:12:45.292Z,5.05
2022-12-18T02:15:25.675Z,5.20
2022-12-18T02:18:06.900Z,5.13
2022-12-18T02:20:37.853Z,4.65
2022-12-18T02:23:10.822Z,5.78
2022-12-18T02:25:56.413Z,4.68
2022-12-18T02:28:27.112Z,7.95
2022-12-18T02:30:54.998Z,5.57
2022-12-18T02:33:22.949Z,5.25
2022-12-18T02:35:50.436Z,4.50
2022-12-18T02:38:18.196Z,6.15
2022-12-18T02:40:45.835Z,5.93
2022-12-18T02:43:15.312Z,8.77
2022-12-18T02:46:00.583Z,5.82
2022-12-18T02:48:33.870Z,4.57
2022-12-18T02:51:10.111Z,16.95
2022-12-18T02:54:15.576Z,19.27
2022-12-18T02:56:53.310Z,6.20
2022-12-18T02:59:33.604Z,5.63
2022-12-18T03:02:24.793Z,6.85
2022-12-18T03:05:04.414Z,5.38
2022-12-18T03:07:47.678Z,5.82
2022-12-18T03:10:18.226Z,5.72
2022-12-18T03:12:53.397Z,6.82
2022-12-18T03:15:24.375Z,4.85
2022-12-18T03:17:58.078Z,4.82
2022-12-18T03:20:26.712Z,5.10
2022-12-18T03:22:59.170Z,4.95
2022-12-18T03:25:27.070Z,5.63
2022-12-18T03:27:57.485Z,4.60
2022-12-18T03:30:24.296Z,5.18
2022-12-18T03:33:00.667Z,4.70
2022-12-18T03:35:35.202Z,5.00
2022-12-18T03:38:02.180Z,4.50
2022-12-18T03:40:36.963Z,4.65
2022-12-18T03:43:10.079Z,5.15
2022-12-18T03:45:44.215Z,4.93
2022-12-18T03:48:30.839Z,4.70
2022-12-18T03:51:00.386Z,4.68
2022-12-18T03:54:03.924Z,5.57
2022-12-18T03:56:34.762Z,4.78
2022-12-18T03:59:03.585Z,5.45
2022-12-18T04:01:35.119Z,4.88
2022-12-18T04:04:03.123Z,5.63
2022-12-18T04:06:30.933Z,4.70
2022-12-18T04:08:59.079Z,5.28
2022-12-18T04:11:26.333Z,4.55
2022-12-18T04:13:57.926Z,4.07
2022-12-18T04:16:26.009Z,4.22
2022-12-18T04:18:53.171Z,4.30
2022-12-18T04:21:20.429Z,4.47
2022-12-18T04:23:47.823Z,4.05
2022-12-18T04:26:14.712Z,4.47
2022-12-18T04:28:41.560Z,5.15
2022-12-18T04:31:08.388Z,3.88
2022-12-18T04:33:35.403Z,4.72
2022-12-18T04:36:02.253Z,3.92
2022-12-18T04:38:29.111Z,4.57
2022-12-18T04:40:55.933Z,4.22
2022-12-18T04:43:22.914Z,4.03
2022-12-18T04:45:49.863Z,4.50
2022-12-18T04:48:16.723Z,4.45
2022-12-18T04:50:43.607Z,4.20
2022-12-18T04:53:10.428Z,4.07
2022-12-18T04:55:37.471Z,4.65
2022-12-18T04:58:04.339Z,5.07
2022-12-18T05:00:31.253Z,4.60
2022-12-18T05:02:58.161Z,4.82
2022-12-18T05:05:25.202Z,4.15
2022-12-18T05:07:52.019Z,4.47
2022-12-18T05:10:18.945Z,4.68
2022-12-18T05:13:01.870Z,4.75
2022-12-18T05:15:33.131Z,4.07
2022-12-18T05:18:00.747Z,4.30
2022-12-18T05:20:28.772Z,4.13
2022-12-18T05:22:56.815Z,4.30
2022-12-18T05:25:24.435Z,4.18
2022-12-18T05:27:51.325Z,4.70
2022-12-18T05:30:18.201Z,4.75
2022-12-18T05:32:45.068Z,4.63
2022-12-18T05:35:12.311Z,4.63
2022-12-18T05:37:42.919Z,5.15
2022-12-18T05:40:10.655Z,4.68
2022-12-18T05:42:37.477Z,4.30
2022-12-18T05:45:05.105Z,4.25
2022-12-18T05:47:32.279Z,3.97
2022-12-18T05:49:59.075Z,4.68
2022-12-18T05:52:25.907Z,4.10
2022-12-18T05:54:52.718Z,4.32
2022-12-18T05:57:19.585Z,4.47
2022-12-18T05:59:46.484Z,4.15
2022-12-18T06:02:13.427Z,4.68
2022-12-18T06:04:40.412Z,4.57
2022-12-18T06:07:07.192Z,4.72
2022-12-18T06:09:34.078Z,4.95
2022-12-18T06:12:00.870Z,3.90
2022-12-18T06:14:27.821Z,4.97
2022-12-18T06:16:54.588Z,4.72
2022-12-18T06:19:21.531Z,4.55
2022-12-18T06:21:48.438Z,4.63
2022-12-18T06:24:15.682Z,4.75
2022-12-18T06:26:42.636Z,4.88
2022-12-18T06:29:09.472Z,3.58
2022-12-18T06:31:36.398Z,4.82
2022-12-18T06:34:04.488Z,4.30
2022-12-18T06:36:31.868Z,4.07
2022-12-18T06:38:58.668Z,4.53
2022-12-18T06:41:25.548Z,4.30
2022-12-18T06:43:56.849Z,4.43
2022-12-18T06:46:26.382Z,4.63
2022-12-18T06:48:53.796Z,4.00
2022-12-18T06:51:23.900Z,4.35
2022-12-18T06:53:50.897Z,4.63
2022-12-18T06:56:18.066Z,5.13
2022-12-18T06:58:44.856Z,4.38
2022-12-18T07:01:13.014Z,5.47
2022-12-18T07:03:42.162Z,5.65
2022-12-18T07:06:29.490Z,5.05
2022-12-18T07:08:56.621Z,4.82
2022-12-18T07:11:23.635Z,4.93
2022-12-18T07:13:50.455Z,5.60
2022-12-18T07:16:24.666Z,5.40
2022-12-18T07:18:52.520Z,5.25
2022-12-18T07:21:20.850Z,5.65
2022-12-18T07:23:49.099Z,5.03
2022-12-18T07:26:20.820Z,4.55
2022-12-18T07:28:48.233Z,5.47
2022-12-18T07:31:18.214Z,5.38
2022-12-18T07:33:45.781Z,5.50
2022-12-18T07:36:12.852Z,5.35
2022-12-18T07:38:40.002Z,6.90
2022-12-18T07:41:09.308Z,7.28
2022-12-18T07:43:37.079Z,8.80
2022-12-18T07:46:04.407Z,7.65
2022-12-18T07:48:31.558Z,9.60
2022-12-18T07:51:02.032Z,7.85
2022-12-18T07:53:29.002Z,8.23
2022-12-18T07:56:25.927Z,6.30
2022-12-18T07:58:48.043Z,6.43
2022-12-18T08:01:15.898Z,6.93
2022-12-18T08:03:43.229Z,6.07
2022-12-18T08:06:10.940Z,7.35
2022-12-18T08:08:38.094Z,8.05
2022-12-18T08:11:05.090Z,5.55
2022-12-18T08:13:32.851Z,5.63
2022-12-18T08:16:05.368Z,6.55
2022-12-18T08:18:34.181Z,5.57
2022-12-18T08:21:17.908Z,5.90
2022-12-18T08:23:45.404Z,5.88
2022-12-18T08:26:13.560Z,5.25
2022-12-18T08:28:41.152Z,5.68
2022-12-18T08:31:08.859Z,6.30
2022-12-18T08:33:38.366Z,5.00
2022-12-18T08:36:06.489Z,5.10
2022-12-18T08:38:36.343Z,7.35
2022-12-18T08:41:06.297Z,5.43
2022-12-18T08:43:52.197Z,5.20
2022-12-18T08:46:19.880Z,4.65
2022-12-18T08:48:47.317Z,5.30
2022-12-18T08:51:14.499Z,4.00
2022-12-18T08:53:41.696Z,5.07
2022-12-18T08:56:09.096Z,4.70
2022-12-18T08:58:36.221Z,4.60
2022-12-18T09:01:04.713Z,4.57
2022-12-18T09:03:32.285Z,5.30
2022-12-18T09:05:59.132Z,3.75
2022-12-18T09:08:26.184Z,3.40
2022-12-18T09:10:52.993Z,4.25
2022-12-18T09:13:20.249Z,4.20
2022-12-18T09:15:52.859Z,4.65
2022-12-18T09:18:21.215Z,4.78
2022-12-18T09:20:48.467Z,3.47
2022-12-18T09:23:15.557Z,4.28
2022-12-18T09:25:42.401Z,4.28
2022-12-18T09:28:16.865Z,4.03
2022-12-18T09:30:46.725Z,3.55
2022-12-18T09:33:13.937Z,4.68
2022-12-18T09:35:42.768Z,3.30
2022-12-18T09:38:13.408Z,7.00
2022-12-18T09:40:51.053Z,3.90
2022-12-18T09:43:28.330Z,3.30
2022-12-18T09:46:00.002Z,3.83
2022-12-18T09:48:30.652Z,2.97
2022-12-18T09:51:02.105Z,4.22
2022-12-18T09:53:32.661Z,3.10
2022-12-18T09:56:01.700Z,3.00
2022-12-18T09:58:33.136Z,2.72
2022-12-18T10:00:59.986Z,3.30
2022-12-18T10:03:27.632Z,2.92
2022-12-18T10:06:05.837Z,2.25
2022-12-18T10:08:49.299Z,3.13
2022-12-18T10:11:46.726Z,2.58
2022-12-18T10:14:17.016Z,3.85
2022-12-18T10:17:04.621Z,4.45
2022-12-18T10:19:52.809Z,7.55
2022-12-18T10:22:37.841Z,3.03
2022-12-18T10:25:26.395Z,2.70
2022-12-18T10:27:56.472Z,2.05
2022-12-18T10:30:24.691Z,2.13
2022-12-18T10:32:51.669Z,2.15
2022-12-18T10:35:25.214Z,2.15
2022-12-18T10:38:05.518Z,2.83
2022-12-18T10:40:32.898Z,6.97
2022-12-18T10:43:16.881Z,2.60
2022-12-18T10:46:03.769Z,8.90
2022-12-18T10:48:32.311Z,13.88
2022-12-18T10:51:10.813Z,4.50
2022-12-18T10:53:41.517Z,12.57
2022-12-18T10:56:08.584Z,4.10
2022-12-18T10:58:37.192Z,17.48
2022-12-18T11:01:07.004Z,2.33
2022-12-18T11:03:37.247Z,2.75
2022-12-18T11:06:15.881Z,2.20
2022-12-18T11:08:45.167Z,3.70
2022-12-18T11:11:23.485Z,1.80
2022-12-18T11:14:16.556Z,2.05
2022-12-18T11:17:09.253Z,2.25
2022-12-18T11:19:38.092Z,1.83
2022-12-18T11:22:28.983Z,3.42
2022-12-18T11:25:30.683Z,2.35
2022-12-18T11:27:54.712Z,1.77
2022-12-18T11:30:24.687Z,2.50
2022-12-18T11:33:16.017Z,2.40
2022-12-18T11:35:52.149Z,1.92
2022-12-18T11:38:19.602Z,4.15
2022-12-18T11:40:51.380Z,1.45
2022-12-18T11:43:31.942Z,2.20
2022-12-18T11:46:24.430Z,6.63
2022-12-18T11:48:55.625Z,1.53
2022-12-18T11:51:38.661Z,1.75
2022-12-18T11:54:14.803Z,1.42
2022-12-18T11:56:48.792Z,1.92
2022-12-18T11:59:37.561Z,2.75
2022-12-18T12:02:25.715Z,1.77
2022-12-18T12:05:19.916Z,2.20
2022-12-18T12:08:01.291Z,3.20
2022-12-18T12:11:00.667Z,2.72
2022-12-18T12:13:37.082Z,1.90
2022-12-18T12:16:15.852Z,2.92
2022-12-18T12:18:56.114Z,1.95
2022-12-18T12:21:45.755Z,2.63
2022-12-18T12:24:33.862Z,2.40
2022-12-18T12:27:13.624Z,2.97
2022-12-18T12:30:06.489Z,2.85
2022-12-18T12:33:02.549Z,2.28
2022-12-18T12:36:14.650Z,2.42
2022-12-18T12:38:57.304Z,2.90
2022-12-18T12:41:45.712Z,2.75
2022-12-18T12:44:19.609Z,3.50
2022-12-18T12:46:48.272Z,3.97
2022-12-18T12:49:18.905Z,3.55
2022-12-18T12:51:51.185Z,4.45
2022-12-18T12:54:24.131Z,3.28
2022-12-18T12:57:13.448Z,3.60
2022-12-18T13:00:03.218Z,3.72
2022-12-18T13:02:50.612Z,3.00
2022-12-18T13:05:58.064Z,3.15
2022-12-18T13:08:26.675Z,3.45
2022-12-18T13:11:15.971Z,3.78
2022-12-18T13:13:51.814Z,2.45
2022-12-18T13:16:21.328Z,3.95
2022-12-18T13:18:59.608Z,3.92
2022-12-18T13:21:29.924Z,4.00
2022-12-18T13:23:58.401Z,3.72
2022-12-18T13:26:28.848Z,4.63
2022-12-18T13:28:57.376Z,3.90
2022-12-18T13:31:42.670Z,4.15
2022-12-18T13:34:27.475Z,5.20
2022-12-18T13:36:58.483Z,5.18
2022-12-18T13:39:35.028Z,4.85
2022-12-18T13:42:08.721Z,4.70
2022-12-18T13:44:41.999Z,4.13
2022-12-18T13:47:27.661Z,4.43
2022-12-18T13:49:54.853Z,5.03
2022-12-18T13:52:28.087Z,4.65
2022-12-18T13:54:57.354Z,4.25
2022-12-18T13:57:35.823Z,4.75
2022-12-18T14:00:29.948Z,5.00
2022-12-18T14:03:00.567Z,4.55
2022-12-18T14:05:32.514Z,4.88
2022-12-18T14:08:08.986Z,6.38
2022-12-18T14:10:48.862Z,4.47
2022-12-18T14:13:30.276Z,5.38
2022-12-18T14:15:59.028Z,4.90
2022-12-18T14:18:31.132Z,5.43
2022-12-18T14:21:02.725Z,11.35
2022-12-18T14:23:39.894Z,5.88
2022-12-18T14:26:39.667Z,5.93
2022-12-18T14:29:28.494Z,6.05
2022-12-18T14:32:23.556Z,5.82
2022-12-18T14:34:52.803Z,7.05
2022-12-18T14:37:26.233Z,8.50
2022-12-18T14:39:58.088Z,8.10
2022-12-18T14:42:29.259Z,8.75
2022-12-18T14:45:39.087Z,6.28
2022-12-18T14:48:14.298Z,8.93
2022-12-18T14:50:43.918Z,7.28
2022-12-18T14:53:22.337Z,11.32
2022-12-18T14:55:49.558Z,6.30
2022-12-18T14:58:17.655Z,6.85
2022-12-18T15:00:44.726Z,6.20
2022-12-18T15:03:11.725Z,7.32
2022-12-18T15:05:38.577Z,6.45
2022-12-18T15:08:51.600Z,7.78
2022-12-18T15:11:30.210Z,17.87
2022-12-18T15:13:59.828Z,9.10
2022-12-18T15:16:26.937Z,8.50
2022-12-18T15:18:54.591Z,8.13
2022-12-18T15:21:22.132Z,8.80
2022-12-18T15:23:51.357Z,8.30
2022-12-18T15:26:20.119Z,8.43
2022-12-18T15:28:56.136Z,8.30
2022-12-18T15:31:30.619Z,8.40
2022-12-18T15:33:57.711Z,8.88
2022-12-18T15:36:26.450Z,9.25
2022-12-18T15:39:02.218Z,8.40
2022-12-18T15:41:36.833Z,8.77
2022-12-18T15:44:04.671Z,9.43
2022-12-18T15:46:32.113Z,10.82
2022-12-18T15:49:02.115Z,10.18
2022-12-18T15:51:33.856Z,10.32
2022-12-18T15:54:04.848Z,11.43
2022-12-18T15:56:51.249Z,11.35
2022-12-18T15:59:19.875Z,11.52
2022-12-18T16:01:48.816Z,13.02
2022-12-18T16:04:17.498Z,15.35
2022-12-18T16:07:13.136Z,17.83
2022-12-18T16:09:31.485Z,13.98
2022-12-18T16:12:01.336Z,20.13
2022-12-18T16:14:30.364Z,78.95
2022-12-18T16:17:02.770Z,24.50
2022-12-18T16:19:30.287Z,19.45
2022-12-18T16:21:58.663Z,14.90
2022-12-18T16:24:27.873Z,14.98
2022-12-18T16:26:55.416Z,21.92
2022-12-18T16:29:28.723Z,24.00
2022-12-18T16:32:00.175Z,11.55
2022-12-18T16:34:36.111Z,16.98
2022-12-18T16:37:06.884Z,14.07
2022-12-18T16:39:35.362Z,12.55
2022-12-18T16:42:22.775Z,12.98
2022-12-18T16:44:50.499Z,11.68
2022-12-18T16:47:17.886Z,13.65
2022-12-18T16:49:51.611Z,13.90
2022-12-18T16:52:20.154Z,15.75
2022-12-18T16:54:47.002Z,13.27
2022-12-18T16:57:19.490Z,14.48
2022-12-18T16:59:48.409Z,14.32
2022-12-18T17:02:25.875Z,14.02
2022-12-18T17:04:58.689Z,13.82
2022-12-18T17:07:26.773Z,12.40
2022-12-18T17:09:54.407Z,14.23
2022-12-18T17:12:21.572Z,14.57
2022-12-18T17:14:48.640Z,12.85
2022-12-18T17:17:23.954Z,11.10
2022-12-18T17:19:52.014Z,15.55
2022-12-18T17:22:19.572Z,13.75
2022-12-18T17:24:47.704Z,15.35
2022-12-18T17:27:14.916Z,16.88
2022-12-18T17:29:47.284Z,20.33
2022-12-18T17:32:15.170Z,13.23
2022-12-18T17:34:42.064Z,16.45
2022-12-18T17:37:09.445Z,16.05
2022-12-18T17:39:36.541Z,18.10
2022-12-18T17:42:03.968Z,18.48
2022-12-18T17:44:32.209Z,18.13
2022-12-18T17:46:59.039Z,18.30
2022-12-18T17:49:25.977Z,16.02
2022-12-18T17:51:53.848Z,17.45
2022-12-18T17:54:20.674Z,20.10
2022-12-18T17:56:47.454Z,20.02
2022-12-18T17:59:15.099Z,21.80
2022-12-18T18:01:44.755Z,21.98
2022-12-18T18:04:12.665Z,17.35
2022-12-18T18:06:39.702Z,18.00
2022-12-18T18:09:15.269Z,20.15
2022-12-18T18:12:03.333Z,22.98
2022-12-18T18:14:30.453Z,18.52
2022-12-18T18:16:57.355Z,18.38
2022-12-18T18:19:31.544Z,20.83
2022-12-18T18:21:58.434Z,24.45
2022-12-18T18:24:25.961Z,20.98
2022-12-18T18:26:53.005Z,20.40
2022-12-18T18:29:22.329Z,21.23
2022-12-18T18:31:49.914Z,20.98
2022-12-18T18:34:31.280Z,22.90
2022-12-18T18:36:58.117Z,22.08
2022-12-18T18:39:25.580Z,17.63
2022-12-18T18:41:52.521Z,20.13
2022-12-18T18:44:24.741Z,22.40
2022-12-18T18:46:57.231Z,39.10
2022-12-18T18:49:27.128Z,23.05
2022-12-18T18:51:57.716Z,28.77
2022-12-18T18:54:26.737Z,20.58
2022-12-18T18:57:19.464Z,19.67
2022-12-18T18:59:40.508Z,17.27
2022-12-18T19:02:11.365Z,19.83
2022-12-18T19:04:45.617Z,23.45
2022-12-18T19:07:13.276Z,20.33
2022-12-18T19:09:42.030Z,19.95
2022-12-18T19:12:28.407Z,22.05
2022-12-18T19:14:55.795Z,21.60
2022-12-18T19:17:27.970Z,29.00
2022-12-18T19:19:56.626Z,25.77
2022-12-18T19:22:23.713Z,25.30
2022-12-18T19:24:50.550Z,19.13
2022-12-18T19:27:17.406Z,22.13
2022-12-18T19:29:44.204Z,21.80
2022-12-18T19:32:11.149Z,21.10
2022-12-18T19:34:39.169Z,22.25
2022-12-18T19:37:06.120Z,20.35
2022-12-18T19:39:32.942Z,19.50
2022-12-18T19:41:59.776Z,20.27
2022-12-18T19:44:26.861Z,20.30
2022-12-18T19:46:53.742Z,17.83
2022-12-18T19:49:21.678Z,19.70
2022-12-18T19:51:50.168Z,20.98
2022-12-18T19:54:17.929Z,20.00
2022-12-18T19:56:45.737Z,20.48
2022-12-18T19:59:12.941Z,15.85
2022-12-18T20:01:39.927Z,25.92
2022-12-18T20:04:06.933Z,21.80
2022-12-18T20:06:36.407Z,30.02
2022-12-18T20:09:07.165Z,27.70
2022-12-18T20:11:39.667Z,21.90
2022-12-18T20:14:10.646Z,19.25
2022-12-18T20:16:37.833Z,21.25
2022-12-18T20:19:05.522Z,20.02
2022-12-18T20:21:33.209Z,18.80
2022-12-18T20:24:01.293Z,19.83
2022-12-18T20:26:28.431Z,18.15
2022-12-18T20:28:55.964Z,18.77
2022-12-18T20:31:23.779Z,13.88
2022-12-18T20:33:51.173Z,18.40
2022-12-18T20:36:22.571Z,18.45
2022-12-18T20:38:56.986Z,18.58
2022-12-18T20:41:25.481Z,16.08
2022-12-18T20:43:52.447Z,17.02
2022-12-18T20:46:19.377Z,19.52
2022-12-18T20:48:47.711Z,18.75
2022-12-18T20:51:16.930Z,20.02
2022-12-18T20:53:44.853Z,25.13
2022-12-18T20:56:21.077Z,19.45
2022-12-18T20:58:54.881Z,18.85
2022-12-18T21:01:26.331Z,19.15
2022-12-18T21:03:53.497Z,20.98
2022-12-18T21:06:21.765Z,19.67
2022-12-18T21:08:48.983Z,18.15
2022-12-18T21:11:40.190Z,19.50
2022-12-18T21:14:21.559Z,20.23
2022-12-18T21:16:48.840Z,19.05
2022-12-18T21:19:17.878Z,20.20
2022-12-18T21:21:45.216Z,15.93
2022-12-18T21:24:12.575Z,18.80
2022-12-18T21:26:45.090Z,20.17
2022-12-18T21:29:18.029Z,19.73
2022-12-18T21:31:45.484Z,20.45
2022-12-18T21:34:21.450Z,18.98
2022-12-18T21:36:49.493Z,17.52
2022-12-18T21:39:17.278Z,18.75
2022-12-18T21:42:03.290Z,19.83
2022-12-18T21:44:30.568Z,19.35
2022-12-18T21:47:09.382Z,20.42
2022-12-18T21:49:40.625Z,17.15
2022-12-18T21:52:10.356Z,17.50
2022-12-18T21:54:37.323Z,19.08
2022-12-18T21:57:05.968Z,18.52
2022-12-18T21:59:37.581Z,18.63
2022-12-18T22:02:16.881Z,19.08
2022-12-18T22:04:45.067Z,17.85
2022-12-18T22:07:12.997Z,19.05
2022-12-18T22:09:40.197Z,18.92
2022-12-18T22:12:08.998Z,17.67
2022-12-18T22:14:36.160Z,19.17
2022-12-18T22:17:03.026Z,17.30
2022-12-18T22:19:30.877Z,17.88
2022-12-18T22:21:57.670Z,18.38
2022-12-18T22:24:26.399Z,18.23
2022-12-18T22:27:01.598Z,19.58
2022-12-18T22:29:47.574Z,18.08
2022-12-18T22:32:29.082Z,18.50
2022-12-18T22:35:04.538Z,19.85
2022-12-18T22:37:33.053Z,17.02
2022-12-18T22:39:59.919Z,17.98
2022-12-18T22:42:30.690Z,17.02
2022-12-18T22:45:04.443Z,17.60
2022-12-18T22:47:31.270Z,17.38
2022-12-18T22:49:58.636Z,17.73
2022-12-18T22:52:25.689Z,11.23
2022-12-18T22:54:53.956Z,15.77
2022-12-18T22:57:22.220Z,16.48
2022-12-18T22:59:49.875Z,16.90
2022-12-18T23:02:17.933Z,16.17
2022-12-18T23:04:45.219Z,16.10
2022-12-18T23:07:12.083Z,19.00
2022-12-18T23:09:40.061Z,17.10
2022-12-18T23:12:07.241Z,17.23
2022-12-18T23:14:34.078Z,18.13
2022-12-18T23:17:00.840Z,17.38
2022-12-18T23:19:27.712Z,17.48
2022-12-18T23:21:58.223Z,15.93
2022-12-18T23:24:28.641Z,17.58
2022-12-18T23:26:58.144Z,18.42
2022-12-18T23:29:24.993Z,18.67
2022-12-18T23:31:51.909Z,19.35
2022-12-18T23:34:18.787Z,17.48
2022-12-18T23:36:46.948Z,18.40
2022-12-18T23:39:28.673Z,17.70
2022-12-18T23:42:00.388Z,18.40
2022-12-18T23:44:27.592Z,19.48
2022-12-18T23:46:54.585Z,20.08
2022-12-18T23:49:21.525Z,20.08
2022-12-18T23:51:48.819Z,17.27
2022-12-18T23:54:15.876Z,20.67
2022-12-18T23:56:42.732Z,19.55
2022-12-18T23:59:09.788Z,19.60
